createdAt,value
2019-06-01T00:00:58.954Z,101950.08
2019-06-01T00:05:52.932Z,101944.00
2019-06-01T00:10:47.752Z,101941.91
2019-06-01T00:15:41.977Z,101938.11
2019-06-01T00:20:36.084Z,101933.59
2019-06-01T00:25:30.397Z,101929.82
2019-06-01T00:30:27.361Z,101930.02
2019-06-01T00:35:20.547Z,101930.50
2019-06-01T00:40:14.724Z,101929.48
2019-06-01T00:45:09.098Z,101931.64
2019-06-01T00:50:06.382Z,101924.81
2019-06-01T00:55:00.466Z,101928.65
2019-06-01T00:59:55.094Z,101925.39
2019-06-01T01:05:09.807Z,101932.89
2019-06-01T01:10:04.776Z,101937.38
2019-06-01T01:14:58.909Z,101949.14
2019-06-01T01:19:53.991Z,101949.38
2019-06-01T01:24:48.334Z,101948.61
2019-06-01T01:29:42.560Z,101943.19
2019-06-01T01:34:36.533Z,101945.83
2019-06-01T01:39:30.584Z,101944.67
2019-06-01T01:44:24.544Z,101939.70
2019-06-01T01:49:18.624Z,101938.86
2019-06-01T01:54:12.589Z,101935.90
2019-06-01T01:59:06.740Z,101936.46
2019-06-01T02:04:00.909Z,101937.38
2019-06-01T02:08:55.189Z,101942.96
2019-06-01T02:13:49.254Z,101937.11
2019-06-01T02:18:43.216Z,101944.72
2019-06-01T02:23:37.176Z,101937.17
2019-06-01T02:28:31.165Z,101937.46
2019-06-01T02:33:25.126Z,101935.60
2019-06-01T02:38:19.164Z,101930.59
2019-06-01T02:43:13.122Z,101933.03
2019-06-01T02:48:07.166Z,101933.88
2019-06-01T02:53:01.589Z,101922.86
2019-06-01T02:57:56.009Z,101922.29
2019-06-01T03:02:50.123Z,101926.88
2019-06-01T03:07:45.700Z,101930.96
2019-06-01T03:12:43.972Z,101923.17
2019-06-01T03:17:40.460Z,101915.80
2019-06-01T03:22:38.438Z,101915.64
2019-06-01T03:27:34.709Z,101914.55
2019-06-01T03:32:36.344Z,101925.23
2019-06-01T03:37:24.732Z,101929.41
2019-06-01T03:42:19.037Z,101929.98
2019-06-01T03:47:12.991Z,101928.78
2019-06-01T03:52:07.372Z,101919.73
2019-06-01T03:57:01.413Z,101917.28
2019-06-01T04:01:55.446Z,101919.72
2019-06-01T04:06:49.417Z,101915.41
2019-06-01T04:11:43.361Z,101925.45
2019-06-01T04:16:39.273Z,101928.31
2019-06-01T04:21:33.243Z,101937.08
2019-06-01T04:26:27.205Z,101942.94
2019-06-01T04:31:21.305Z,101936.42
2019-06-01T04:36:15.267Z,101942.17
2019-06-01T04:41:09.759Z,101946.78
2019-06-01T04:46:04.045Z,101949.70
2019-06-01T04:50:58.090Z,101964.08
2019-06-01T04:55:52.081Z,101963.93
2019-06-01T05:00:46.648Z,101961.67
2019-06-01T05:05:40.602Z,101959.59
2019-06-01T05:10:37.007Z,101959.34
2019-06-01T05:15:31.089Z,101958.38
2019-06-01T05:20:25.045Z,101960.08
2019-06-01T05:25:19.177Z,101957.51
2019-06-01T05:30:13.870Z,101958.69
2019-06-01T05:35:08.169Z,101949.55
2019-06-01T05:40:04.925Z,101939.70
2019-06-01T05:44:58.945Z,101938.31
2019-06-01T05:49:52.974Z,101939.36
2019-06-01T05:54:46.936Z,101932.88
2019-06-01T05:59:41.242Z,101930.33
2019-06-01T06:04:35.195Z,101931.94
2019-06-01T06:09:29.140Z,101925.36
2019-06-01T06:14:23.115Z,101923.58
2019-06-01T06:19:20.511Z,101928.00
2019-06-01T06:24:12.930Z,101925.55
2019-06-01T06:29:06.896Z,101927.22
2019-06-01T06:34:00.875Z,101932.19
2019-06-01T06:38:57.851Z,101919.10
2019-06-01T06:44:01.056Z,101920.73
2019-06-01T06:48:55.499Z,101912.67
2019-06-01T06:53:49.576Z,101920.77
2019-06-01T06:58:43.566Z,101924.58
2019-06-01T07:03:37.540Z,101928.05
2019-06-01T07:08:31.501Z,101923.17
2019-06-01T07:13:25.506Z,101934.59
2019-06-01T07:18:19.469Z,101936.92
2019-06-01T07:23:13.433Z,101933.16
2019-06-01T07:28:07.457Z,101932.04
2019-06-01T07:33:01.388Z,101940.38
2019-06-01T07:37:55.456Z,101941.56
2019-06-01T07:42:49.434Z,101937.55
2019-06-01T07:47:43.432Z,101935.47
2019-06-01T07:52:37.391Z,101935.30
2019-06-01T07:57:31.766Z,101941.52
2019-06-01T08:02:27.922Z,101934.52
2019-06-01T08:07:23.300Z,101940.94
2019-06-01T08:12:17.620Z,101926.92
2019-06-01T08:17:11.613Z,101921.32
2019-06-01T08:22:05.723Z,101925.00
2019-06-01T08:26:59.741Z,101912.37
2019-06-01T08:31:55.898Z,101918.52
2019-06-01T08:36:49.680Z,101912.31
2019-06-01T08:41:43.794Z,101907.58
2019-06-01T08:46:37.802Z,101913.02
2019-06-01T08:51:32.154Z,101909.51
2019-06-01T08:56:26.275Z,101910.72
2019-06-01T09:01:20.240Z,101895.70
2019-06-01T09:06:14.232Z,101895.20
2019-06-01T09:11:08.277Z,101892.44
2019-06-01T09:16:02.551Z,101893.85
2019-06-01T09:20:56.834Z,101881.83
2019-06-01T09:25:50.935Z,101883.56
2019-06-01T09:30:44.934Z,101877.81
2019-06-01T09:35:52.609Z,101881.42
2019-06-01T09:40:35.196Z,101888.91
2019-06-01T09:45:29.900Z,101869.88
2019-06-01T09:50:24.056Z,101870.78
2019-06-01T09:55:19.941Z,101875.77
2019-06-01T10:00:14.442Z,101858.16
2019-06-01T10:05:10.772Z,101864.63
2019-06-01T10:10:05.183Z,101859.31
2019-06-01T10:14:59.314Z,101865.93
2019-06-01T10:19:53.379Z,101864.27
2019-06-01T10:24:47.483Z,101855.20
2019-06-01T10:29:42.912Z,101851.19
2019-06-01T10:34:37.792Z,101845.23
2019-06-01T10:39:33.013Z,101845.91
2019-06-01T10:44:27.140Z,101836.72
2019-06-01T10:49:21.119Z,101828.61
2019-06-01T10:54:15.119Z,101821.84
2019-06-01T10:59:09.350Z,101818.81
2019-06-01T11:04:03.748Z,101824.18
2019-06-01T11:08:57.728Z,101819.87
2019-06-01T11:13:51.699Z,101818.36
2019-06-01T11:18:45.855Z,101815.40
2019-06-01T11:23:43.665Z,101806.90
2019-06-01T11:28:36.191Z,101799.70
2019-06-01T11:33:30.354Z,101789.98
2019-06-01T11:38:24.418Z,101788.76
2019-06-01T11:43:18.611Z,101786.74
2019-06-01T11:48:12.597Z,101776.84
2019-06-01T11:53:06.540Z,101776.23
2019-06-01T11:58:00.792Z,101767.84
2019-06-01T12:02:54.870Z,101763.50
2019-06-01T12:07:48.849Z,101766.08
2019-06-01T12:12:44.210Z,101754.72
2019-06-01T12:17:38.830Z,101754.46
2019-06-01T12:22:32.940Z,101742.12
2019-06-01T12:27:26.875Z,101743.50
2019-06-01T12:32:20.862Z,101741.47
2019-06-01T12:37:14.823Z,101741.20
2019-06-01T12:42:08.913Z,101727.00
2019-06-01T12:47:03.207Z,101718.05
2019-06-01T12:51:57.307Z,101707.25
2019-06-01T12:56:51.499Z,101687.77
2019-06-01T13:01:45.604Z,101687.77
2019-06-01T13:06:40.750Z,101692.05
2019-06-01T13:11:35.362Z,101689.84
2019-06-01T13:16:29.479Z,101685.92
2019-06-01T13:21:23.429Z,101681.39
2019-06-01T13:26:17.411Z,101675.62
2019-06-01T13:31:11.379Z,101671.00
2019-06-01T13:36:05.513Z,101658.89
2019-06-01T13:40:59.576Z,101656.52
2019-06-01T13:45:53.663Z,101656.81
2019-06-01T13:50:47.912Z,101646.56
2019-06-01T13:55:41.862Z,101642.59
2019-06-01T14:00:35.955Z,101626.77
2019-06-01T14:05:30.034Z,101622.08
2019-06-01T14:10:24.038Z,101627.13
2019-06-01T14:15:18.064Z,101614.67
2019-06-01T14:20:12.261Z,101613.34
2019-06-01T14:25:13.709Z,101612.41
2019-06-01T14:30:06.021Z,101601.43
2019-06-01T14:35:00.125Z,101601.69
2019-06-01T14:39:54.960Z,101594.59
2019-06-01T14:44:49.332Z,101595.89
2019-06-01T14:49:43.392Z,101585.84
2019-06-01T14:54:37.359Z,101579.42
2019-06-01T14:59:31.469Z,101572.68
2019-06-01T15:04:25.428Z,101575.56
2019-06-01T15:09:20.064Z,101565.72
2019-06-01T15:14:14.328Z,101558.44
2019-06-01T15:19:08.297Z,101552.78
2019-06-01T15:24:02.743Z,101544.48
2019-06-01T15:28:57.115Z,101547.33
2019-06-01T15:33:51.336Z,101542.51
2019-06-01T15:38:45.302Z,101535.74
2019-06-01T15:43:39.290Z,101529.69
2019-06-01T15:48:33.264Z,101510.31
2019-06-01T15:53:27.239Z,101500.59
2019-06-01T15:58:21.263Z,101501.77
2019-06-01T16:03:15.220Z,101496.67
2019-06-01T16:08:09.230Z,101488.69
2019-06-01T16:13:04.456Z,101481.86
2019-06-01T16:17:59.998Z,101475.63
2019-06-01T16:22:54.243Z,101478.83
2019-06-01T16:27:48.243Z,101477.42
2019-06-01T16:32:42.812Z,101468.74
2019-06-01T16:37:36.801Z,101466.06
2019-06-01T16:42:30.825Z,101466.61
2019-06-01T16:47:24.968Z,101469.73
2019-06-01T16:52:18.938Z,101465.01
2019-06-01T16:57:12.939Z,101466.70
2019-06-01T17:02:07.958Z,101459.97
2019-06-01T17:07:05.672Z,101452.84
2019-06-01T17:11:58.750Z,101456.18
2019-06-01T17:16:52.791Z,101454.05
2019-06-01T17:21:47.195Z,101444.75
2019-06-01T17:26:41.200Z,101452.34
2019-06-01T17:31:35.182Z,101451.28
2019-06-01T17:36:29.287Z,101447.72
2019-06-01T17:41:23.375Z,101446.47
2019-06-01T17:46:17.461Z,101439.09
2019-06-01T17:51:12.553Z,101432.97
2019-06-01T17:56:08.076Z,101443.66
2019-06-01T18:01:04.100Z,101443.66
2019-06-01T18:05:58.582Z,101443.66
2019-06-01T18:10:54.921Z,101443.20
2019-06-01T18:15:50.155Z,101439.63
2019-06-01T18:20:44.450Z,101439.23
2019-06-01T18:25:38.503Z,101435.23
2019-06-01T18:30:32.811Z,101433.56
2019-06-01T18:35:26.775Z,101431.34
2019-06-01T18:40:22.761Z,101431.25
2019-06-01T18:45:17.541Z,101431.31
2019-06-01T18:50:14.724Z,101434.49
2019-06-01T18:55:08.532Z,101436.03
2019-06-01T19:00:09.227Z,101434.85
2019-06-01T19:05:02.961Z,101433.45
2019-06-01T19:09:57.179Z,101439.27
2019-06-01T19:14:51.262Z,101434.75
2019-06-01T19:19:45.236Z,101430.91
2019-06-01T19:24:39.663Z,101423.56
2019-06-01T19:29:33.669Z,101429.75
2019-06-01T19:34:27.670Z,101434.84
2019-06-01T19:39:21.763Z,101428.73
2019-06-01T19:44:15.926Z,101428.59
2019-06-01T19:49:10.837Z,101437.10
2019-06-01T19:54:05.210Z,101437.36
2019-06-01T19:58:59.607Z,101434.23
2019-06-01T20:03:53.583Z,101432.63
2019-06-01T20:08:47.567Z,101431.08
2019-06-01T20:13:41.780Z,101431.24
2019-06-01T20:18:35.842Z,101448.61
2019-06-01T20:23:29.802Z,101441.13
2019-06-01T20:28:23.786Z,101439.71
2019-06-01T20:33:18.288Z,101434.23
2019-06-01T20:38:12.671Z,101435.35
2019-06-01T20:43:07.312Z,101434.58
2019-06-01T20:48:01.604Z,101430.59
2019-06-01T20:52:55.619Z,101431.83
2019-06-01T20:57:49.857Z,101434.77
2019-06-01T21:02:43.848Z,101429.73
2019-06-01T21:07:38.110Z,101430.75
2019-06-01T21:12:44.795Z,101425.39
2019-06-01T21:17:28.326Z,101424.91
2019-06-01T21:22:22.755Z,101422.39
2019-06-01T21:27:16.744Z,101429.34
2019-06-01T21:32:10.875Z,101423.45
2019-06-01T21:37:04.837Z,101426.14
2019-06-01T21:41:58.799Z,101422.46
2019-06-01T21:46:52.769Z,101415.73
2019-06-01T21:51:47.273Z,101416.39
2019-06-01T21:56:41.319Z,101416.69
2019-06-01T22:01:35.413Z,101413.84
2019-06-01T22:06:29.888Z,101406.60
2019-06-01T22:11:25.433Z,101408.10
2019-06-01T22:16:19.548Z,101404.23
2019-06-01T22:21:13.598Z,101401.86
2019-06-01T22:26:07.559Z,101395.48
2019-06-01T22:31:01.643Z,101390.58
2019-06-01T22:35:55.631Z,101389.55
2019-06-01T22:40:49.613Z,101384.66
2019-06-01T22:45:43.789Z,101380.09
2019-06-01T22:50:37.750Z,101384.30
2019-06-01T22:55:32.565Z,101382.94
2019-06-01T23:00:27.856Z,101375.70
2019-06-01T23:05:23.021Z,101369.94
2019-06-01T23:10:17.301Z,101372.94
2019-06-01T23:15:11.894Z,101369.20
2019-06-01T23:20:06.387Z,101368.70
2019-06-01T23:25:00.463Z,101363.47
2019-06-01T23:29:54.426Z,101362.27
2019-06-01T23:34:48.399Z,101360.42
2019-06-01T23:39:42.427Z,101358.21
2019-06-01T23:44:36.507Z,101353.31
2019-06-01T23:49:31.347Z,101350.26
2019-06-01T23:54:25.592Z,101344.02
2019-06-01T23:59:19.719Z,101338.64
